Time;durP1;ratioP1;P1;durP2;ratioP2;P2;SDS_P1;SDS_P2;PMS_P1;PMS_P2;Temp;Humidity;BMP_temperature;BMP_pressure;BME280_temperature;BME280_humidity;BME280_pressure;Samples;Min_cycle;Max_cycle;Signal;HPM_P1;HPM_P2
2021/09/24 00:02:09;;;;;;;15.52;8.63;;;17.50;99.90;;;;;;4993635;28;20479;-77
2021/09/24 00:04:36;;;;;;;15.85;8.30;;;17.60;99.90;;;;;;4993439;28;20096;-76
2021/09/24 00:07:04;;;;;;;14.43;8.45;;;17.60;99.90;;;;;;4993928;28;20093;-77
2021/09/24 00:09:31;;;;;;;16.20;9.25;;;17.50;99.90;;;;;;4993730;28;20129;-78
2021/09/24 00:11:58;;;;;;;12.00;9.10;;;17.50;99.90;;;;;;4993504;28;20054;-77
2021/09/24 00:14:25;;;;;;;18.88;8.80;;;17.40;99.90;;;;;;4992422;28;20077;-77
2021/09/24 00:16:53;;;;;;;16.45;9.30;;;17.50;99.90;;;;;;4993004;28;20057;-78
2021/09/24 00:19:20;;;;;;;13.88;9.00;;;17.50;99.90;;;;;;4993193;28;20133;-80
2021/09/24 00:21:46;;;;;;;18.05;9.02;;;17.50;99.90;;;;;;4993071;28;20058;-77
2021/09/24 00:24:13;;;;;;;12.80;8.85;;;17.50;99.90;;;;;;4993163;28;20136;-76
2021/09/24 00:26:40;;;;;;;19.80;9.32;;;17.50;99.90;;;;;;4993356;28;20046;-77
2021/09/24 00:29:07;;;;;;;15.13;9.77;;;17.50;99.90;;;;;;4993974;28;20056;-77
2021/09/24 00:31:34;;;;;;;14.82;9.50;;;17.50;99.90;;;;;;4992933;28;20073;-76
2021/09/24 00:34:02;;;;;;;16.80;9.80;;;17.50;99.90;;;;;;4992482;28;20046;-78
2021/09/24 00:36:29;;;;;;;13.60;9.13;;;17.50;99.90;;;;;;4993032;28;20046;-75
2021/09/24 00:38:56;;;;;;;13.27;9.70;;;17.50;99.90;;;;;;4992889;28;20133;-76
2021/09/24 00:41:23;;;;;;;14.00;9.52;;;17.50;99.90;;;;;;4993347;28;20130;-76
2021/09/24 00:43:49;;;;;;;18.95;10.38;;;17.50;99.90;;;;;;4993209;28;20057;-76
2021/09/24 00:46:16;;;;;;;13.57;10.52;;;17.50;99.90;;;;;;4993331;28;20133;-76
2021/09/24 00:48:43;;;;;;;19.25;10.98;;;17.50;99.90;;;;;;4993663;28;20069;-80
2021/09/24 00:51:11;;;;;;;14.60;11.23;;;17.60;99.90;;;;;;4992767;28;20054;-77
2021/09/24 00:53:38;;;;;;;15.27;11.77;;;17.60;99.90;;;;;;4992482;28;20065;-78
2021/09/24 00:56:05;;;;;;;18.90;12.15;;;17.50;99.90;;;;;;4992478;28;20057;-77
2021/09/24 00:58:32;;;;;;;18.55;12.85;;;17.50;99.90;;;;;;4992459;28;20232;-77
2021/09/24 01:00:59;;;;;;;22.65;13.15;;;17.50;99.90;;;;;;4992180;28;20689;-77
2021/09/24 01:03:26;;;;;;;19.42;14.23;;;17.40;99.90;;;;;;4992590;28;20543;-79
2021/09/24 01:05:53;;;;;;;21.50;14.18;;;17.40;99.90;;;;;;4993377;28;20160;-77
2021/09/24 01:08:22;;;;;;;18.83;13.77;;;17.50;99.90;;;;;;4992631;28;20085;-77
2021/09/24 01:10:50;;;;;;;18.35;13.13;;;17.50;99.90;;;;;;4991962;28;20059;-80
2021/09/24 01:13:16;;;;;;;17.35;11.35;;;17.50;99.90;;;;;;4992826;28;20078;-77
2021/09/24 01:15:43;;;;;;;13.88;9.75;;;17.50;99.90;;;;;;4992472;28;20050;-77
2021/09/24 01:18:10;;;;;;;15.68;9.80;;;17.60;99.90;;;;;;4992370;28;20153;-76
2021/09/24 01:20:38;;;;;;;16.63;9.45;;;17.60;99.90;;;;;;4992247;28;20136;-78
2021/09/24 01:23:06;;;;;;;14.60;9.27;;;17.60;99.90;;;;;;4991994;28;20054;-77
2021/09/24 01:25:33;;;;;;;11.70;8.77;;;17.60;99.90;;;;;;4992694;28;20085;-78
2021/09/24 01:28:00;;;;;;;14.88;9.57;;;17.50;99.90;;;;;;4994069;28;20133;-78
2021/09/24 01:30:27;;;;;;;14.27;9.30;;;17.50;99.90;;;;;;4992170;28;20129;-78
2021/09/24 01:32:54;;;;;;;12.88;9.50;;;17.50;99.90;;;;;;5021827;23;20054;-81
2021/09/24 01:35:21;;;;;;;15.13;10.38;;;17.50;99.90;;;;;;4984935;28;20054;-82
2021/09/24 01:37:48;;;;;;;16.25;10.52;;;17.50;99.90;;;;;;4983145;28;20126;-82
2021/09/24 01:40:18;;;;;;;17.55;11.13;;;17.60;99.90;;;;;;4983859;28;20050;-80
2021/09/24 01:42:47;;;;;;;18.55;12.65;;;17.60;99.90;;;;;;4982316;28;20050;-82
2021/09/24 01:45:14;;;;;;;16.92;12.30;;;17.50;99.90;;;;;;4980970;28;20093;-81
2021/09/24 01:47:41;;;;;;;18.85;12.70;;;17.50;99.90;;;;;;4981132;28;20130;-81
2021/09/24 01:50:10;;;;;;;17.85;12.73;;;17.50;99.90;;;;;;4982441;28;20054;-82
2021/09/24 01:52:37;;;;;;;20.73;12.63;;;17.30;99.90;;;;;;4982191;28;20133;-82
2021/09/24 01:55:05;;;;;;;18.30;13.40;;;17.30;99.90;;;;;;4983433;28;20082;-81
2021/09/24 01:57:33;;;;;;;19.95;13.77;;;17.30;99.90;;;;;;4982529;28;20111;-81
2021/09/24 02:00:00;;;;;;;21.88;15.38;;;17.40;99.90;;;;;;4981740;28;20096;-82
2021/09/24 02:02:27;;;;;;;20.45;13.55;;;17.40;99.90;;;;;;4981449;28;20051;-82
2021/09/24 02:04:54;;;;;;;18.42;15.00;;;17.40;99.90;;;;;;4981553;28;20082;-81
2021/09/24 02:07:21;;;;;;;23.27;15.23;;;17.40;99.90;;;;;;4981125;28;20089;-82
2021/09/24 02:09:47;;;;;;;20.40;14.60;;;17.30;99.90;;;;;;4981222;28;20086;-81
2021/09/24 02:12:14;;;;;;;23.75;15.82;;;17.30;99.90;;;;;;4981770;28;20086;-82
2021/09/24 02:14:43;;;;;;;26.42;16.25;;;17.40;99.90;;;;;;4980643;28;20149;-81
2021/09/24 02:17:10;;;;;;;21.52;15.98;;;17.40;99.90;;;;;;4980445;28;20134;-81
2021/09/24 02:19:36;;;;;;;22.73;16.38;;;17.40;99.90;;;;;;4981395;28;20141;-81
2021/09/24 02:22:04;;;;;;;22.80;16.00;;;17.40;99.90;;;;;;4982991;28;20054;-83
2021/09/24 02:24:31;;;;;;;21.02;15.50;;;17.30;99.90;;;;;;4982604;28;20078;-83
2021/09/24 02:26:58;;;;;;;21.20;16.00;;;17.30;99.90;;;;;;4981769;28;20180;-82
2021/09/24 02:29:24;;;;;;;27.50;16.08;;;17.20;99.90;;;;;;4980861;28;20090;-82
2021/09/24 02:31:53;;;;;;;22.05;15.73;;;17.20;99.90;;;;;;4983408;28;20078;-82
2021/09/24 02:34:21;;;;;;;27.15;19.05;;;17.20;99.90;;;;;;4982099;28;20090;-83
2021/09/24 02:36:48;;;;;;;25.90;19.42;;;17.20;99.90;;;;;;4983919;28;20058;-81
2021/09/24 02:39:15;;;;;;;23.48;18.98;;;17.10;99.90;;;;;;4981594;28;20087;-82
2021/09/24 02:41:42;;;;;;;26.45;19.60;;;17.20;99.90;;;;;;4984328;28;20078;-81
2021/09/24 02:44:09;;;;;;;33.63;21.95;;;17.10;99.90;;;;;;4983882;28;20137;-81
2021/09/24 02:46:36;;;;;;;35.47;22.33;;;17.10;99.90;;;;;;4982239;28;20078;-83
2021/09/24 02:49:04;;;;;;;29.95;20.75;;;17.10;99.90;;;;;;4983250;28;20133;-82
2021/09/24 02:51:31;;;;;;;25.67;17.65;;;17.00;99.90;;;;;;4980427;28;20137;-82
2021/09/24 02:53:58;;;;;;;25.50;16.83;;;17.10;99.90;;;;;;4980743;28;20533;-82
2021/09/24 02:56:25;;;;;;;24.02;14.60;;;17.10;99.90;;;;;;4979125;28;20177;-83
2021/09/24 02:58:51;;;;;;;24.13;15.13;;;17.10;99.90;;;;;;4981746;28;20133;-81
2021/09/24 03:01:18;;;;;;;19.30;14.52;;;17.10;99.90;;;;;;4982053;28;20110;-82
2021/09/24 03:03:45;;;;;;;23.38;15.68;;;17.10;99.90;;;;;;4982949;28;20051;-83
2021/09/24 03:06:13;;;;;;;23.73;16.00;;;17.10;99.90;;;;;;4985601;28;20590;-80
2021/09/24 03:08:40;;;;;;;25.13;16.25;;;17.00;99.90;;;;;;4985378;28;20089;-81
2021/09/24 03:11:07;;;;;;;19.42;14.45;;;17.00;99.90;;;;;;4984758;28;20111;-82
2021/09/24 03:13:34;;;;;;;24.45;16.15;;;17.00;99.90;;;;;;4984136;28;20106;-81
2021/09/24 03:16:01;;;;;;;25.70;16.58;;;17.00;99.90;;;;;;4983691;28;20114;-81
2021/09/24 03:18:28;;;;;;;31.73;17.63;;;17.00;99.90;;;;;;4981748;28;20481;-81
2021/09/24 03:20:55;;;;;;;27.88;19.05;;;17.00;99.90;;;;;;4980016;28;20050;-81
2021/09/24 03:23:24;;;;;;;29.35;18.73;;;17.00;99.90;;;;;;4981554;28;20054;-82
2021/09/24 03:25:51;;;;;;;25.73;17.88;;;17.00;99.90;;;;;;4981181;28;20058;-81
2021/09/24 03:28:18;;;;;;;23.38;16.55;;;17.00;99.90;;;;;;4980515;28;20126;-82
2021/09/24 03:30:45;;;;;;;28.55;18.00;;;17.00;99.90;;;;;;4979777;28;20089;-81
2021/09/24 03:33:12;;;;;;;25.77;17.45;;;17.00;99.90;;;;;;4979962;28;20047;-81
2021/09/24 03:35:39;;;;;;;26.92;20.00;;;17.00;99.90;;;;;;4985525;28;20054;-82
2021/09/24 03:38:06;;;;;;;30.40;20.35;;;17.00;99.90;;;;;;4985160;28;20081;-84
2021/09/24 03:40:34;;;;;;;30.90;20.67;;;16.90;99.90;;;;;;4985940;28;20078;-84
2021/09/24 03:43:01;;;;;;;33.50;20.15;;;16.90;99.90;;;;;;4986653;28;20114;-84
2021/09/24 03:45:28;;;;;;;33.75;22.80;;;16.80;99.90;;;;;;4987490;28;20119;-83
2021/09/24 03:47:55;;;;;;;33.30;22.15;;;16.80;99.90;;;;;;4986242;28;20046;-84
2021/09/24 03:50:24;;;;;;;34.20;21.90;;;16.80;99.90;;;;;;4984901;28;20114;-83
2021/09/24 03:52:52;;;;;;;35.70;23.15;;;16.70;99.90;;;;;;4985832;28;20055;-83
2021/09/24 03:55:19;;;;;;;30.02;21.63;;;16.70;99.90;;;;;;4984825;28;20498;-83
2021/09/24 03:57:47;;;;;;;32.65;22.50;;;16.70;99.90;;;;;;4983653;28;20110;-84
2021/09/24 04:00:15;;;;;;;32.17;22.00;;;16.70;99.90;;;;;;4984594;28;20077;-83
2021/09/24 04:02:42;;;;;;;34.88;23.63;;;16.70;99.90;;;;;;4988314;28;20074;-84
2021/09/24 04:05:10;;;;;;;34.47;22.27;;;16.70;99.90;;;;;;4991269;28;20137;-83
2021/09/24 04:07:37;;;;;;;35.97;24.13;;;16.70;99.90;;;;;;4989839;28;20046;-84
2021/09/24 04:10:05;;;;;;;38.65;24.48;;;16.70;99.90;;;;;;4972244;28;20106;-83
2021/09/24 04:12:32;;;;;;;37.75;24.58;;;16.70;99.90;;;;;;4975113;28;20051;-81
2021/09/24 04:15:00;;;;;;;32.67;25.15;;;16.70;99.90;;;;;;4970357;28;20132;-84
2021/09/24 04:17:27;;;;;;;36.60;25.65;;;16.70;99.90;;;;;;4973860;28;20070;-83
2021/09/24 04:19:54;;;;;;;39.75;26.85;;;16.70;99.90;;;;;;4985172;28;20122;-82
2021/09/24 04:22:23;;;;;;;37.25;24.85;;;16.70;99.90;;;;;;4982864;28;20133;-83
2021/09/24 04:25:14;;;;;;;39.55;25.95;;;16.60;99.90;;;;;;4982434;28;20159;-83
2021/09/24 04:27:56;;;;;;;38.08;25.45;;;16.60;99.90;;;;;;4984530;28;20047;-84
2021/09/24 04:30:24;;;;;;;34.23;23.93;;;16.60;99.90;;;;;;4984817;28;20054;-83
2021/09/24 04:32:51;;;;;;;39.95;24.83;;;16.60;99.90;;;;;;4982654;28;20050;-83
2021/09/24 04:35:18;;;;;;;34.70;25.10;;;16.50;99.90;;;;;;4982497;28;20310;-83
2021/09/24 04:37:46;;;;;;;34.03;24.50;;;16.50;99.90;;;;;;4983354;28;20113;-83
2021/09/24 04:40:14;;;;;;;35.35;25.88;;;16.50;99.90;;;;;;4982936;28;20089;-83
2021/09/24 04:42:41;;;;;;;38.22;25.65;;;16.50;99.90;;;;;;4981716;28;20082;-83
2021/09/24 04:45:08;;;;;;;34.40;25.95;;;16.60;99.90;;;;;;4981884;28;20074;-82
2021/09/24 04:47:38;;;;;;;33.95;25.67;;;16.60;99.90;;;;;;4982626;28;20129;-83
2021/09/24 04:50:06;;;;;;;33.80;27.25;;;16.60;99.90;;;;;;4981922;28;20146;-83
2021/09/24 04:52:33;;;;;;;32.25;25.70;;;16.50;99.90;;;;;;4982705;28;20505;-83
2021/09/24 04:55:00;;;;;;;35.38;25.45;;;16.50;99.90;;;;;;4982652;28;20137;-82
2021/09/24 04:57:27;;;;;;;34.50;26.42;;;16.50;99.90;;;;;;4983846;28;20046;-83
2021/09/24 04:59:54;;;;;;;32.22;24.48;;;16.50;99.90;;;;;;4983689;28;20097;-82
2021/09/24 05:02:21;;;;;;;38.03;25.00;;;16.60;99.90;;;;;;4982515;28;20453;-83
2021/09/24 05:04:49;;;;;;;30.55;24.42;;;16.60;99.90;;;;;;4982402;28;20493;-82
2021/09/24 05:07:19;;;;;;;33.65;26.05;;;16.70;99.90;;;;;;4981557;28;20137;-83
2021/09/24 05:09:46;;;;;;;36.67;24.23;;;16.70;99.90;;;;;;4982013;28;20061;-83
2021/09/24 05:12:13;;;;;;;34.47;25.77;;;16.80;99.90;;;;;;4981268;28;20137;-84
2021/09/24 05:14:43;;;;;;;34.90;26.77;;;16.80;99.90;;;;;;4980439;28;20072;-83
2021/09/24 05:17:10;;;;;;;33.83;27.58;;;16.80;99.90;;;;;;4980694;28;20110;-84
2021/09/24 05:19:37;;;;;;;33.90;26.30;;;16.90;99.90;;;;;;4980334;28;20082;-84
2021/09/24 05:22:05;;;;;;;36.60;26.88;;;16.90;99.90;;;;;;4980788;28;20086;-84
2021/09/24 05:24:32;;;;;;;34.10;25.92;;;16.90;99.90;;;;;;4980552;28;20059;-83
2021/09/24 05:27:00;;;;;;;31.38;24.67;;;16.90;99.90;;;;;;4980428;28;20491;-84
2021/09/24 05:29:27;;;;;;;31.52;24.77;;;16.90;99.90;;;;;;4980917;28;20046;-84
2021/09/24 05:31:54;;;;;;;32.70;25.20;;;16.90;99.90;;;;;;4980321;28;20055;-84
2021/09/24 05:34:22;;;;;;;34.35;25.05;;;17.00;99.90;;;;;;4981553;28;20074;-84
2021/09/24 05:36:49;;;;;;;36.75;26.50;;;17.00;99.90;;;;;;4981015;28;20441;-84
2021/09/24 05:39:18;;;;;;;32.35;24.95;;;16.90;99.90;;;;;;4982532;28;20096;-83
2021/09/24 05:41:46;;;;;;;36.53;24.00;;;16.90;99.90;;;;;;4978128;28;20469;-84
2021/09/24 05:44:13;;;;;;;32.83;23.80;;;16.90;99.90;;;;;;4978361;28;20134;-83
2021/09/24 05:46:41;;;;;;;34.88;24.60;;;16.80;99.90;;;;;;4978294;28;20050;-83
2021/09/24 05:49:08;;;;;;;32.85;25.00;;;16.80;99.90;;;;;;4981354;28;20050;-83
2021/09/24 05:51:37;;;;;;;33.28;25.10;;;16.80;99.90;;;;;;4981506;28;20528;-84
2021/09/24 05:54:03;;;;;;;33.10;24.92;;;16.80;99.90;;;;;;4982500;28;20089;-85
2021/09/24 05:56:32;;;;;;;31.58;24.33;;;16.70;99.90;;;;;;4983770;28;20126;-84
2021/09/24 05:58:58;;;;;;;32.00;24.23;;;16.70;99.90;;;;;;4982753;28;20065;-85
2021/09/24 06:01:26;;;;;;;31.88;24.13;;;16.70;99.90;;;;;;4984100;28;20054;-84
2021/09/24 06:03:54;;;;;;;32.70;24.20;;;16.70;99.90;;;;;;4985187;28;20080;-85
2021/09/24 06:06:21;;;;;;;33.25;24.02;;;16.70;99.90;;;;;;4983660;28;20062;-84
2021/09/24 06:08:50;;;;;;;35.13;26.17;;;16.70;99.90;;;;;;4983249;28;20062;-84
2021/09/24 06:11:17;;;;;;;30.67;23.27;;;16.70;99.90;;;;;;4982335;28;20055;-82
2021/09/24 06:13:46;;;;;;;32.72;24.52;;;16.70;99.90;;;;;;4983985;28;20556;-84
2021/09/24 06:16:13;;;;;;;34.22;23.83;;;16.70;99.90;;;;;;4983279;28;20106;-84
2021/09/24 06:18:41;;;;;;;31.15;23.73;;;16.70;99.90;;;;;;4980246;28;20494;-83
2021/09/24 06:21:08;;;;;;;31.92;22.95;;;16.70;99.90;;;;;;4978891;28;20059;-84
2021/09/24 06:23:39;;;;;;;28.50;22.98;;;16.70;99.90;;;;;;4980280;28;20086;-84
2021/09/24 06:26:09;;;;;;;33.72;23.75;;;16.80;99.90;;;;;;4980407;28;20051;-84
2021/09/24 06:28:44;;;;;;;40.53;25.13;;;16.80;99.90;;;;;;4979867;28;20054;-84
2021/09/24 06:31:13;;;;;;;30.65;21.90;;;16.90;99.90;;;;;;4980999;28;20051;-85
2021/09/24 06:33:40;;;;;;;30.73;22.08;;;16.90;99.90;;;;;;4985108;28;20097;-83
2021/09/24 06:36:29;;;;;;;30.60;22.63;;;16.90;99.90;;;;;;4984114;28;20050;-84
2021/09/24 06:42:18;;;;;;;28.35;22.58;;;17.00;99.90;;;;;;4945864;28;20048;-83
2021/09/24 06:44:48;;;;;;;28.00;20.60;;;17.20;99.90;;;;;;4983669;28;20084;-82
2021/09/24 07:07:31;;;;;;;34.03;22.42;;;17.40;99.90;;;;;;4812096;29;20054;-83
2021/09/24 07:10:08;;;;;;;30.50;22.95;;;17.50;99.90;;;;;;4922757;23;20131;-77
2021/09/24 07:12:40;;;;;;;32.60;23.23;;;17.60;99.90;;;;;;4974325;28;20154;-78
2021/09/24 07:15:13;;;;;;;28.80;22.70;;;17.70;99.90;;;;;;4974926;28;20046;-77
2021/09/24 07:18:00;;;;;;;;;;;;;;;;;;;;;
2021/09/24 07:20:36;;;;;;;32.15;23.95;;;17.70;99.90;;;;;;4974225;28;20058;-76
2021/09/24 07:23:11;;;;;;;35.35;24.42;;;17.70;99.90;;;;;;4974886;28;20540;-77
2021/09/24 07:28:37;;;;;;;39.75;26.42;;;17.70;99.90;;;;;;4963573;28;20090;-78
2021/09/24 07:31:27;;;;;;;36.20;27.13;;;17.70;99.90;;;;;;4973656;28;20121;-78
2021/09/24 07:34:16;;;;;;;36.50;27.35;;;17.70;99.90;;;;;;4974706;28;20051;-78
2021/09/24 07:40:28;;;;;;;32.22;27.55;;;17.70;99.90;;;;;;4956343;28;20133;-77
2021/09/24 07:43:08;;;;;;;33.78;26.85;;;17.80;99.90;;;;;;4973879;28;20089;-77
2021/09/24 07:45:56;;;;;;;;;;;;;;;;;;;;;
2021/09/24 07:48:26;;;;;;;30.92;25.90;;;17.80;99.90;;;;;;4974267;28;20058;-78
2021/09/24 07:50:57;;;;;;;29.15;25.23;;;17.80;99.90;;;;;;4976795;28;20183;-78
2021/09/24 07:53:40;;;;;;;25.00;22.38;;;17.60;99.90;;;;;;4976938;28;20058;-78
2021/09/24 07:56:12;;;;;;;26.08;21.52;;;17.60;99.90;;;;;;4976849;28;20078;-78
2021/09/24 07:58:43;;;;;;;;;;;17.50;99.90;;;;;;4977790;28;20388;-79
2021/09/24 08:01:13;;;;;;;28.52;19.70;;;17.60;99.90;;;;;;4978992;28;19922;-81
2021/09/24 08:03:43;;;;;;;22.70;16.80;;;17.60;99.90;;;;;;4979301;28;20059;-79
2021/09/24 08:06:10;;;;;;;24.55;18.00;;;17.60;99.90;;;;;;4979290;28;20047;-82
2021/09/24 08:08:39;;;;;;;24.85;18.35;;;17.60;99.90;;;;;;4979607;28;20058;-81
2021/09/24 08:11:12;;;;;;;24.65;16.27;;;17.50;99.90;;;;;;4976881;28;20176;-79
2021/09/24 08:23:45;;;;;;;21.65;16.42;;;17.70;99.90;;;;;;4901862;28;20059;-78
2021/09/24 08:26:41;;;;;;;21.88;15.88;;;17.70;99.90;;;;;;4975783;28;20071;-78
2021/09/24 08:29:34;;;;;;;17.65;14.63;;;17.70;99.90;;;;;;4976530;28;20047;-77
2021/09/24 08:32:39;;;;;;;19.45;14.98;;;17.70;99.90;;;;;;4975827;28;20054;-78
2021/09/24 08:35:27;;;;;;;18.90;14.70;;;17.60;99.90;;;;;;4977530;28;20055;-78
2021/09/24 08:38:21;;;;;;;21.42;15.73;;;17.60;99.90;;;;;;4956066;28;20055;-77
2021/09/24 08:41:29;;;;;;;23.23;16.45;;;17.70;99.90;;;;;;4975533;28;20054;-78
2021/09/24 08:44:15;;;;;;;23.33;16.52;;;17.70;99.90;;;;;;4975299;28;20055;-78
2021/09/24 08:47:10;;;;;;;25.85;16.83;;;17.70;99.90;;;;;;4980085;28;20050;-78
2021/09/24 08:52:53;;;;;;;21.50;15.55;;;17.80;99.90;;;;;;4975734;28;20062;-79
2021/09/24 08:55:29;;;;;;;19.27;14.35;;;18.00;99.90;;;;;;4975667;28;20051;-79
2021/09/24 08:58:17;;;;;;;24.38;14.63;;;18.10;99.90;;;;;;4976181;28;20053;-78
2021/09/24 09:01:27;;;;;;;18.20;13.52;;;18.40;99.90;;;;;;4975516;28;20054;-79
2021/09/24 09:04:06;;;;;;;20.27;13.45;;;18.70;99.90;;;;;;4976351;28;20138;-79
2021/09/24 09:06:48;;;;;;;16.27;12.77;;;19.10;99.90;;;;;;4974266;28;20062;-79
2021/09/24 09:09:21;;;;;;;15.45;12.48;;;19.50;99.90;;;;;;4975049;28;20462;-76
2021/09/24 09:11:56;;;;;;;;;;;19.50;99.90;;;;;;4974571;28;20102;-77
2021/09/24 09:14:37;;;;;;;;;;;;;;;;;;;;;
2021/09/24 09:17:34;;;;;;;19.20;13.32;;;19.70;99.90;;;;;;4973427;28;20059;-78
2021/09/24 09:20:31;;;;;;;16.30;12.50;;;19.70;99.90;;;;;;4973717;28;20117;-78
2021/09/24 09:23:18;;;;;;;15.77;12.15;;;19.80;99.90;;;;;;4974684;28;20054;-79
2021/09/24 09:26:25;;;;;;;17.90;11.13;;;20.00;99.90;;;;;;4973454;28;20115;-78
2021/09/24 09:35:41;;;;;;;13.43;9.98;;;20.30;99.90;;;;;;4971875;28;20055;-78
2021/09/24 09:38:35;;;;;;;16.42;10.52;;;20.30;99.90;;;;;;4974776;28;20537;-78
2021/09/24 09:44:39;;;;;;;13.30;9.15;;;20.10;99.90;;;;;;4972574;28;20086;-78
2021/09/24 09:57:02;;;;;;;11.50;8.75;;;20.40;99.90;;;;;;4968945;28;20445;-78
2021/09/24 10:00:04;;;;;;;12.27;9.13;;;20.50;99.90;;;;;;4973942;28;20051;-78
2021/09/24 10:15:09;;;;;;;13.48;9.02;;;20.50;99.90;;;;;;4976909;28;20498;-79
2021/09/24 10:18:01;;;;;;;16.45;10.52;;;20.50;99.90;;;;;;4976375;28;20457;-78
2021/09/24 10:20:30;;;;;;;11.68;7.68;;;20.60;99.90;;;;;;5129719;23;20078;-79
2021/09/24 10:23:13;;;;;;;9.38;7.25;;;20.80;99.90;;;;;;4977459;28;20130;-78
2021/09/24 10:25:45;;;;;;;10.75;8.27;;;21.00;99.90;;;;;;4977906;28;20118;-79
2021/09/24 10:28:18;;;;;;;11.88;8.65;;;21.10;99.90;;;;;;4977921;28;20061;-80
2021/09/24 10:30:48;;;;;;;13.55;9.57;;;21.20;99.90;;;;;;4977891;28;20050;-78
2021/09/24 10:33:26;;;;;;;13.00;9.95;;;21.20;99.90;;;;;;4977509;28;20058;-78
2021/09/24 10:35:58;;;;;;;15.25;9.90;;;21.10;99.90;;;;;;5013370;23;20113;-79
2021/09/24 10:38:34;;;;;;;12.90;9.10;;;21.00;99.90;;;;;;4982620;28;20466;-78
2021/09/24 10:41:09;;;;;;;12.25;9.52;;;20.90;99.90;;;;;;4981913;28;20047;-80
2021/09/24 10:43:46;;;;;;;15.10;9.07;;;21.00;99.90;;;;;;4982093;28;20050;-79
2021/09/24 10:46:34;;;;;;;14.23;8.38;;;20.90;99.90;;;;;;4992029;28;20113;-80
2021/09/24 10:49:30;;;;;;;13.15;8.70;;;20.90;99.90;;;;;;4994469;28;20137;-81
2021/09/24 10:52:12;;;;;;;14.68;10.18;;;20.90;99.90;;;;;;4994171;28;20050;-81
2021/09/24 10:54:58;;;;;;;19.38;9.55;;;20.90;99.90;;;;;;4993776;28;20050;-81
2021/09/24 10:57:32;;;;;;;14.13;9.70;;;20.80;99.90;;;;;;4993640;28;20091;-81
2021/09/24 11:00:22;;;;;;;16.27;10.18;;;20.80;99.90;;;;;;4994012;28;20096;-81
2021/09/24 11:03:07;;;;;;;10.35;7.88;;;20.90;99.90;;;;;;4993748;28;20088;-81
2021/09/24 11:05:56;;;;;;;10.75;7.80;;;21.10;99.90;;;;;;4993225;28;20055;-81
2021/09/24 11:08:37;;;;;;;14.35;8.70;;;21.20;99.90;;;;;;4992758;28;20081;-80
2021/09/24 11:11:07;;;;;;;13.27;8.45;;;21.20;99.90;;;;;;4993857;28;20046;-80
2021/09/24 11:13:42;;;;;;;11.80;8.38;;;21.00;99.90;;;;;;4992757;28;20042;-80
2021/09/24 11:16:14;;;;;;;10.52;7.93;;;20.90;99.90;;;;;;4993870;28;20062;-81
2021/09/24 11:18:49;;;;;;;11.73;7.35;;;20.80;99.90;;;;;;4993857;28;20054;-81
2021/09/24 11:21:17;;;;;;;12.40;7.20;;;20.90;99.90;;;;;;4995647;28;20073;-81
2021/09/24 11:23:44;;;;;;;12.55;7.70;;;21.00;99.90;;;;;;4995560;28;20074;-81
2021/09/24 11:26:16;;;;;;;9.57;6.45;;;21.10;99.90;;;;;;4994167;28;20082;-81
2021/09/24 11:28:49;;;;;;;12.13;8.52;;;21.20;99.90;;;;;;4994943;28;20066;-80
2021/09/24 11:31:41;;;;;;;;;;;21.30;99.90;;;;;;4995228;28;20047;-80
2021/09/24 11:34:50;;;;;;;10.30;7.10;;;21.30;99.90;;;;;;4993836;28;19926;-80
2021/09/24 11:37:19;;;;;;;12.40;7.65;;;21.30;99.90;;;;;;4994032;28;20051;-80
2021/09/24 11:39:54;;;;;;;12.25;7.78;;;21.40;99.90;;;;;;4993163;28;20058;-81
2021/09/24 11:42:29;;;;;;;14.30;7.57;;;21.50;99.90;;;;;;4992233;28;20059;-80
2021/09/24 11:45:08;;;;;;;10.75;7.13;;;21.50;99.90;;;;;;4990696;28;20046;-79
2021/09/24 11:47:43;;;;;;;11.15;7.90;;;21.50;99.90;;;;;;4990650;28;20105;-80
2021/09/24 11:50:18;;;;;;;11.85;7.80;;;21.40;99.90;;;;;;4990368;28;20046;-80
2021/09/24 11:52:54;;;;;;;11.10;6.70;;;21.50;99.90;;;;;;4989726;28;20057;-80
2021/09/24 11:55:28;;;;;;;11.02;6.75;;;21.60;99.90;;;;;;4990515;28;20066;-80
2021/09/24 11:58:09;;;;;;;9.77;7.63;;;21.60;99.90;;;;;;4991358;28;20059;-80
2021/09/24 12:00:55;;;;;;;10.23;6.47;;;21.70;99.90;;;;;;4990481;28;20053;-81
2021/09/24 12:03:35;;;;;;;8.27;6.03;;;21.70;99.90;;;;;;4991340;28;20054;-80
2021/09/24 12:06:10;;;;;;;8.23;5.18;;;21.80;99.90;;;;;;4991659;28;20054;-80
2021/09/24 12:08:52;;;;;;;10.52;6.03;;;21.80;99.90;;;;;;4992282;28;20055;-81
2021/09/24 12:11:34;;;;;;;9.35;6.00;;;21.80;99.90;;;;;;4991346;28;20039;-80
2021/09/24 12:14:10;;;;;;;8.50;5.68;;;21.90;99.90;;;;;;4991115;28;20065;-80
2021/09/24 12:16:52;;;;;;;10.60;6.60;;;22.10;99.90;;;;;;4988935;28;20054;-80
2021/09/24 12:19:37;;;;;;;;;;;;;;;;;;;;;
2021/09/24 12:22:25;;;;;;;9.05;5.80;;;22.50;99.90;;;;;;4987202;28;20050;-81
2021/09/24 12:25:11;;;;;;;9.85;5.70;;;22.60;99.90;;;;;;4993056;28;20051;-81
2021/09/24 12:27:40;;;;;;;12.95;6.40;;;22.80;99.90;;;;;;4992042;28;20066;-81
2021/09/24 12:30:47;;;;;;;10.50;6.05;;;22.80;99.90;;;;;;4990961;28;20081;-81
2021/09/24 12:33:22;;;;;;;10.40;6.35;;;22.70;99.90;;;;;;4990464;28;20055;-80
2021/09/24 12:38:54;;;;;;;11.88;6.22;;;22.70;99.90;;;;;;4985851;28;20046;-80
2021/09/24 12:41:26;;;;;;;10.15;5.97;;;22.50;99.90;;;;;;4990437;28;20139;-80
2021/09/24 12:44:02;;;;;;;9.07;5.80;;;22.40;99.90;;;;;;4989618;28;20058;-80
2021/09/24 12:46:48;;;;;;;8.15;5.57;;;22.30;99.90;;;;;;4990387;28;20089;-80
2021/09/24 12:49:25;;;;;;;11.73;6.32;;;22.10;99.90;;;;;;4990874;28;20050;-80
2021/09/24 12:52:01;;;;;;;11.70;6.97;;;21.90;99.90;;;;;;4997113;28;20046;-80
2021/09/24 12:54:30;;;;;;;9.07;6.10;;;21.80;99.90;;;;;;4994843;28;20111;-80
2021/09/24 12:57:04;;;;;;;9.38;5.85;;;21.80;99.90;;;;;;4987086;28;20051;-80
2021/09/24 12:59:40;;;;;;;12.50;7.30;;;21.90;99.90;;;;;;4990113;28;20055;-81
2021/09/24 13:02:12;;;;;;;11.88;7.20;;;21.80;99.90;;;;;;4989214;28;20050;-80
2021/09/24 13:04:54;;;;;;;10.63;7.85;;;21.90;99.90;;;;;;4988545;28;20051;-80
2021/09/24 13:07:29;;;;;;;11.13;6.40;;;21.80;99.90;;;;;;4990603;28;20055;-80
2021/09/24 13:10:19;;;;;;;9.38;6.15;;;21.90;99.90;;;;;;4988138;28;20051;-80
2021/09/24 13:12:51;;;;;;;9.88;6.00;;;21.90;99.90;;;;;;4986775;28;20058;-80
2021/09/24 13:15:23;;;;;;;12.70;5.50;;;22.00;99.90;;;;;;4991089;28;20058;-80
2021/09/24 13:18:07;;;;;;;7.05;5.60;;;22.10;99.90;;;;;;4992807;28;20082;-80
2021/09/24 13:20:45;;;;;;;12.48;5.68;;;22.10;99.90;;;;;;4991661;28;20047;-79
2021/09/24 13:23:12;;;;;;;8.02;4.95;;;22.20;99.90;;;;;;4988036;28;20208;-79
2021/09/24 13:25:39;;;;;;;10.10;5.75;;;22.20;99.90;;;;;;4985757;28;20397;-80
2021/09/24 13:28:06;;;;;;;8.70;5.35;;;22.20;99.90;;;;;;4984917;28;20082;-80
2021/09/24 13:30:34;;;;;;;10.15;5.85;;;22.00;99.90;;;;;;4986541;28;20047;-80
2021/09/24 13:33:03;;;;;;;8.55;5.63;;;22.00;99.90;;;;;;4983478;28;20050;-80
2021/09/24 13:35:30;;;;;;;8.32;5.63;;;21.90;99.90;;;;;;4981412;28;20051;-80
2021/09/24 13:37:57;;;;;;;10.20;5.55;;;21.80;99.90;;;;;;4983244;28;20114;-80
2021/09/24 13:40:24;;;;;;;8.40;5.90;;;22.00;99.90;;;;;;4987470;28;20074;-79
2021/09/24 13:42:52;;;;;;;11.77;5.60;;;21.90;99.90;;;;;;4983367;28;20157;-79
2021/09/24 13:45:19;;;;;;;9.30;5.40;;;22.00;99.90;;;;;;4982502;28;20125;-79
2021/09/24 13:47:46;;;;;;;9.90;5.85;;;22.00;99.90;;;;;;4978402;28;20521;-80
2021/09/24 13:50:15;;;;;;;7.43;5.50;;;22.00;99.90;;;;;;4979110;28;20126;-79
2021/09/24 13:52:42;;;;;;;9.73;6.00;;;22.10;99.90;;;;;;4982142;28;20061;-80
2021/09/24 13:55:09;;;;;;;10.73;5.95;;;22.00;99.90;;;;;;4991107;28;20062;-80
2021/09/24 13:57:36;;;;;;;8.48;6.03;;;22.00;99.90;;;;;;4987843;28;20059;-80
2021/09/24 14:00:04;;;;;;;10.80;5.45;;;22.10;99.90;;;;;;4988039;28;20093;-80
2021/09/24 14:02:31;;;;;;;8.32;6.10;;;22.00;99.90;;;;;;4987140;28;20058;-79
2021/09/24 14:05:01;;;;;;;11.07;6.13;;;22.10;99.90;;;;;;4983007;28;20089;-79
2021/09/24 14:07:30;;;;;;;9.98;5.80;;;22.10;99.90;;;;;;4983307;28;20142;-78
2021/09/24 14:09:57;;;;;;;7.85;5.90;;;22.20;99.90;;;;;;4982669;28;20078;-78
2021/09/24 14:12:24;;;;;;;38.20;7.40;;;22.20;99.90;;;;;;4982330;28;20059;-79
2021/09/24 14:14:50;;;;;;;19.42;6.35;;;22.30;99.90;;;;;;4983628;28;20106;-79
2021/09/24 14:17:18;;;;;;;13.98;6.45;;;22.40;99.90;;;;;;4982973;28;20078;-79
2021/09/24 14:19:44;;;;;;;13.93;6.15;;;22.30;99.90;;;;;;4981993;28;20520;-79
2021/09/24 14:22:11;;;;;;;7.63;5.90;;;22.40;99.90;;;;;;4981583;28;20077;-78
2021/09/24 14:24:40;;;;;;;9.73;5.50;;;22.40;99.90;;;;;;4982239;28;20133;-79